createdAt,value
2023-03-21T00:00:57.288Z,75.74
2023-03-21T00:03:24.153Z,75.05
2023-03-21T00:05:53.945Z,74.93
2023-03-21T00:08:23.351Z,75.31
2023-03-21T00:11:01.289Z,75.03
2023-03-21T00:13:32.649Z,75.02
2023-03-21T00:16:18.774Z,75.60
2023-03-21T00:18:52.660Z,74.78
2023-03-21T00:21:41.068Z,75.38
2023-03-21T00:24:08.281Z,75.26
2023-03-21T00:26:35.725Z,74.82
2023-03-21T00:29:04.938Z,75.12
2023-03-21T00:31:31.723Z,74.53
2023-03-21T00:33:58.377Z,74.80
2023-03-21T00:36:26.193Z,74.54
2023-03-21T00:38:53.273Z,74.33
2023-03-21T00:41:39.242Z,74.70
2023-03-21T00:44:08.197Z,74.18
2023-03-21T00:46:44.044Z,74.00
2023-03-21T00:49:20.983Z,74.46
2023-03-21T00:51:51.329Z,74.68
2023-03-21T00:54:20.696Z,73.76
2023-03-21T00:56:49.611Z,74.19
2023-03-21T00:59:16.750Z,73.66
2023-03-21T01:01:44.030Z,73.70
2023-03-21T01:04:14.712Z,73.60
2023-03-21T01:06:42.938Z,73.98
2023-03-21T01:09:19.491Z,73.92
2023-03-21T01:11:49.426Z,73.55
2023-03-21T01:14:22.903Z,73.47
2023-03-21T01:16:54.082Z,73.86
2023-03-21T01:19:40.664Z,73.72
2023-03-21T01:22:13.214Z,73.73
2023-03-21T01:24:53.887Z,73.50
2023-03-21T01:27:26.042Z,73.91
2023-03-21T01:29:55.336Z,73.72
2023-03-21T01:32:21.963Z,73.41
2023-03-21T01:34:51.648Z,73.71
2023-03-21T01:37:20.707Z,73.93
2023-03-21T01:39:47.317Z,73.59
2023-03-21T01:42:17.153Z,73.32
2023-03-21T01:44:57.943Z,73.14
2023-03-21T01:47:25.660Z,73.21
2023-03-21T01:49:59.323Z,73.31
2023-03-21T01:52:37.619Z,73.42
2023-03-21T01:55:12.230Z,72.65
2023-03-21T01:58:02.377Z,73.19
2023-03-21T02:00:32.916Z,73.22
2023-03-21T02:03:13.673Z,73.06
2023-03-21T02:05:56.225Z,73.03
2023-03-21T02:08:30.545Z,73.23
2023-03-21T02:11:05.414Z,73.19
2023-03-21T02:13:32.074Z,73.16
2023-03-21T02:15:58.645Z,72.52
2023-03-21T02:18:34.299Z,73.16
2023-03-21T02:21:48.425Z,72.73
2023-03-21T02:24:29.959Z,72.71
2023-03-21T02:27:08.922Z,72.64
2023-03-21T02:29:48.525Z,72.71
2023-03-21T02:32:38.022Z,72.53
2023-03-21T02:35:23.660Z,72.15
2023-03-21T02:38:01.117Z,72.15
2023-03-21T02:40:46.697Z,71.76
2023-03-21T02:43:23.704Z,71.98
2023-03-21T02:45:55.453Z,71.90
2023-03-21T02:48:41.085Z,71.75
2023-03-21T02:51:21.181Z,71.18
2023-03-21T02:54:20.004Z,71.73
2023-03-21T02:56:41.584Z,71.76
2023-03-21T02:59:08.954Z,71.77
2023-03-21T03:01:35.801Z,71.35
2023-03-21T03:04:04.971Z,71.33
2023-03-21T03:06:49.252Z,71.08
2023-03-21T03:09:28.495Z,71.22
2023-03-21T03:12:24.137Z,71.46
2023-03-21T03:15:04.426Z,71.40
2023-03-21T03:17:58.798Z,72.01
2023-03-21T03:20:25.472Z,72.05
2023-03-21T03:23:04.589Z,72.23
2023-03-21T03:25:49.144Z,72.38
2023-03-21T03:28:20.418Z,72.26
2023-03-21T03:31:07.073Z,72.31
2023-03-21T03:33:38.555Z,73.00
2023-03-21T03:36:09.426Z,72.53
2023-03-21T03:38:41.721Z,73.24
2023-03-21T03:41:19.544Z,73.32
2023-03-21T03:43:51.273Z,73.67
2023-03-21T03:46:53.253Z,73.24
2023-03-21T03:49:26.637Z,73.54
2023-03-21T03:51:59.111Z,73.45
2023-03-21T03:54:37.150Z,73.75
2023-03-21T03:57:05.443Z,74.07
2023-03-21T03:59:36.042Z,74.25
2023-03-21T04:02:03.510Z,74.46
2023-03-21T04:04:31.953Z,73.82
2023-03-21T04:07:03.626Z,73.90
2023-03-21T04:09:43.657Z,74.70
2023-03-21T04:12:15.514Z,74.47
2023-03-21T04:14:47.216Z,74.70
2023-03-21T04:17:14.866Z,74.81
2023-03-21T04:19:45.691Z,74.48
2023-03-21T04:22:12.983Z,74.68
2023-03-21T04:24:40.040Z,74.45
2023-03-21T04:27:06.781Z,74.62
2023-03-21T04:29:33.766Z,74.69
2023-03-21T04:32:01.473Z,75.09
2023-03-21T04:34:28.437Z,74.94
2023-03-21T04:36:58.303Z,74.84
2023-03-21T04:39:27.292Z,74.68
2023-03-21T04:41:54.039Z,75.18
2023-03-21T04:44:21.063Z,74.59
2023-03-21T04:46:47.723Z,74.91
2023-03-21T04:49:14.324Z,75.36
2023-03-21T04:51:44.064Z,75.13
2023-03-21T04:56:38.578Z,75.17
2023-03-21T04:59:14.584Z,75.04
2023-03-21T05:01:43.725Z,75.01
2023-03-21T05:04:11.979Z,75.19
2023-03-21T05:06:39.459Z,75.14
2023-03-21T05:09:07.134Z,75.34
2023-03-21T05:11:39.698Z,75.23
2023-03-21T05:14:07.981Z,75.42
2023-03-21T05:16:36.528Z,74.96
2023-03-21T05:19:03.927Z,75.09
2023-03-21T05:21:41.794Z,75.72
2023-03-21T05:24:12.346Z,76.06
2023-03-21T05:26:40.597Z,75.82
2023-03-21T05:29:09.923Z,76.10
2023-03-21T05:31:39.333Z,76.25
2023-03-21T05:34:10.507Z,76.17
2023-03-21T05:36:39.830Z,75.89
2023-03-21T05:39:06.831Z,76.13
2023-03-21T05:41:33.655Z,76.39
2023-03-21T05:44:00.942Z,76.71
2023-03-21T05:46:27.937Z,76.21
2023-03-21T05:48:57.066Z,76.89
2023-03-21T05:51:26.020Z,76.99
2023-03-21T05:53:52.819Z,77.18
2023-03-21T05:56:24.272Z,76.89
2023-03-21T05:58:51.981Z,77.45
2023-03-21T06:01:19.007Z,77.47
2023-03-21T06:03:45.982Z,77.16
2023-03-21T06:06:12.834Z,76.91
2023-03-21T06:08:39.652Z,77.16
2023-03-21T06:11:18.133Z,77.75
2023-03-21T06:13:44.797Z,77.29
2023-03-21T06:16:11.492Z,77.75
2023-03-21T06:18:38.170Z,77.25
2023-03-21T06:21:04.910Z,77.79
2023-03-21T06:23:31.711Z,77.49
2023-03-21T06:26:01.425Z,77.81
2023-03-21T06:28:28.133Z,77.49
2023-03-21T06:30:54.761Z,78.24
2023-03-21T06:33:23.524Z,77.58
2023-03-21T06:35:55.282Z,77.63
2023-03-21T06:38:25.779Z,77.76
2023-03-21T06:40:52.451Z,77.64
2023-03-21T06:43:21.580Z,77.91
2023-03-21T06:45:48.245Z,77.38
2023-03-21T06:48:15.093Z,77.69
2023-03-21T06:50:41.914Z,77.25
2023-03-21T06:53:10.935Z,77.49
2023-03-21T06:55:38.275Z,77.56
2023-03-21T06:58:05.093Z,77.86
2023-03-21T07:00:34.141Z,77.56
2023-03-21T07:03:03.357Z,77.36
2023-03-21T07:05:30.007Z,77.30
2023-03-21T07:08:01.297Z,77.67
2023-03-21T07:10:28.057Z,77.73
2023-03-21T07:12:54.739Z,77.83
2023-03-21T07:15:21.979Z,77.87
2023-03-21T07:17:48.629Z,77.86
2023-03-21T07:20:15.324Z,78.05
2023-03-21T07:22:42.083Z,77.54
2023-03-21T07:25:10.060Z,77.40
2023-03-21T07:27:41.062Z,77.46
2023-03-21T07:30:09.787Z,77.47
2023-03-21T07:32:38.077Z,76.52
2023-03-21T07:35:05.935Z,76.74
2023-03-21T07:37:32.706Z,77.06
2023-03-21T07:39:59.484Z,76.56
2023-03-21T07:42:28.349Z,76.37
2023-03-21T07:44:55.460Z,76.63
2023-03-21T07:47:22.305Z,76.74
2023-03-21T07:49:51.281Z,76.33
2023-03-21T07:52:17.952Z,76.44
2023-03-21T07:54:47.046Z,76.67
2023-03-21T07:57:13.946Z,76.50
2023-03-21T07:59:40.973Z,76.82
2023-03-21T08:02:07.677Z,76.67
2023-03-21T08:04:36.822Z,76.25
2023-03-21T08:07:08.338Z,75.77
2023-03-21T08:09:35.372Z,76.23
2023-03-21T08:12:04.445Z,76.33
2023-03-21T08:14:31.118Z,76.33
2023-03-21T08:17:00.413Z,76.32
2023-03-21T08:19:27.119Z,75.92
2023-03-21T08:21:55.970Z,75.39
2023-03-21T08:24:22.690Z,75.63
2023-03-21T08:26:49.483Z,74.90
2023-03-21T08:29:16.330Z,75.02
2023-03-21T08:31:45.425Z,75.15
2023-03-21T08:34:14.410Z,75.02
2023-03-21T08:36:44.312Z,75.35
2023-03-21T08:39:11.441Z,75.43
2023-03-21T08:41:38.736Z,75.62
2023-03-21T08:44:09.715Z,75.79
2023-03-21T08:46:36.904Z,76.04
2023-03-21T08:49:03.664Z,75.75
2023-03-21T08:51:31.836Z,75.74
2023-03-21T08:53:58.510Z,75.24
2023-03-21T08:56:25.435Z,75.93
2023-03-21T08:58:52.092Z,75.57
2023-03-21T09:01:19.041Z,76.40
2023-03-21T09:03:45.921Z,76.13
2023-03-21T09:06:14.376Z,76.01
2023-03-21T09:08:42.192Z,75.82
2023-03-21T09:11:10.117Z,75.68
2023-03-21T09:13:39.089Z,75.49
2023-03-21T09:16:06.231Z,75.68
2023-03-21T09:18:47.348Z,75.32
2023-03-21T09:21:18.548Z,74.67
2023-03-21T09:23:47.191Z,74.69
2023-03-21T09:26:14.359Z,74.42
2023-03-21T09:28:43.850Z,74.41
2023-03-21T09:31:12.416Z,74.51
2023-03-21T09:33:43.256Z,74.28
2023-03-21T09:36:15.545Z,73.87
2023-03-21T09:38:46.128Z,72.75
2023-03-21T09:41:19.108Z,72.49
2023-03-21T09:43:58.048Z,71.78
2023-03-21T09:46:33.986Z,71.47
2023-03-21T09:49:10.018Z,70.09
2023-03-21T09:51:43.075Z,70.73
2023-03-21T09:54:48.905Z,70.03
2023-03-21T09:57:40.222Z,69.95
2023-03-21T10:00:16.385Z,70.09
2023-03-21T10:02:49.706Z,70.03
2023-03-21T10:05:30.577Z,69.37
2023-03-21T10:08:04.785Z,69.85
2023-03-21T10:10:39.882Z,69.39
2023-03-21T10:13:15.892Z,69.29
2023-03-21T10:15:45.201Z,69.72
2023-03-21T10:18:23.158Z,69.44
2023-03-21T10:20:51.618Z,69.15
2023-03-21T10:23:22.670Z,69.17
2023-03-21T10:25:55.171Z,68.61
2023-03-21T10:28:29.131Z,69.06
2023-03-21T10:31:00.858Z,69.12
2023-03-21T10:33:34.050Z,68.24
2023-03-21T10:36:05.398Z,68.10
2023-03-21T10:38:35.055Z,68.27
2023-03-21T10:41:04.080Z,67.46
2023-03-21T10:43:34.921Z,66.93
2023-03-21T10:46:28.129Z,67.01
2023-03-21T10:48:55.081Z,67.52
2023-03-21T10:51:27.035Z,66.72
2023-03-21T10:54:01.516Z,66.23
2023-03-21T10:56:35.795Z,66.78
2023-03-21T10:59:03.686Z,66.18
2023-03-21T11:01:38.074Z,66.62
2023-03-21T11:04:15.716Z,66.39
2023-03-21T11:06:48.117Z,65.82
2023-03-21T11:09:25.108Z,65.79
2023-03-21T11:12:10.003Z,66.26
2023-03-21T11:14:49.665Z,65.73
2023-03-21T11:17:23.679Z,66.12
2023-03-21T11:19:54.905Z,65.56
2023-03-21T11:22:24.566Z,64.99
2023-03-21T11:24:57.773Z,64.73
2023-03-21T11:27:29.468Z,64.36
2023-03-21T11:29:58.093Z,63.75
2023-03-21T11:32:30.663Z,63.90
2023-03-21T11:35:01.486Z,63.64
2023-03-21T11:37:32.110Z,64.17
2023-03-21T11:40:18.656Z,63.40
2023-03-21T11:42:49.766Z,63.47
2023-03-21T11:45:23.152Z,63.47
2023-03-21T11:47:51.803Z,63.37
2023-03-21T11:50:24.416Z,62.92
2023-03-21T11:53:07.402Z,63.07
2023-03-21T11:55:42.883Z,63.56
2023-03-21T11:58:14.573Z,63.18
2023-03-21T12:00:57.361Z,63.15
2023-03-21T12:03:47.386Z,63.34
2023-03-21T12:06:37.743Z,63.67
2023-03-21T12:09:07.248Z,63.88
2023-03-21T12:11:59.380Z,62.92
2023-03-21T12:15:06.323Z,63.18
2023-03-21T12:17:36.104Z,62.68
2023-03-21T12:20:17.756Z,62.04
2023-03-21T12:23:22.404Z,61.97
2023-03-21T12:26:00.968Z,62.23
2023-03-21T12:28:33.746Z,61.83
2023-03-21T12:31:18.032Z,61.11
2023-03-21T12:34:13.202Z,61.58
2023-03-21T12:37:11.069Z,61.16
2023-03-21T12:39:43.864Z,61.50
2023-03-21T12:42:25.602Z,61.44
2023-03-21T12:45:16.730Z,62.03
2023-03-21T12:47:58.124Z,61.95
2023-03-21T12:50:36.896Z,61.40
2023-03-21T12:53:26.237Z,60.97
2023-03-21T12:55:56.115Z,61.56
2023-03-21T12:58:28.370Z,61.82
2023-03-21T13:00:58.444Z,62.26
2023-03-21T13:03:39.112Z,61.99
2023-03-21T13:06:09.602Z,62.72
2023-03-21T13:08:52.836Z,62.37
2023-03-21T13:11:25.385Z,63.03
2023-03-21T13:14:15.469Z,62.24
2023-03-21T13:16:52.387Z,62.31
2023-03-21T13:19:22.833Z,62.35
2023-03-21T13:22:11.781Z,61.71
2023-03-21T13:24:48.825Z,61.18
2023-03-21T13:27:27.570Z,61.30
2023-03-21T13:30:01.010Z,61.53
2023-03-21T13:32:39.663Z,61.68
2023-03-21T13:35:10.023Z,61.11
2023-03-21T13:37:42.125Z,60.73
2023-03-21T13:40:42.970Z,59.96
2023-03-21T13:43:47.348Z,60.09
2023-03-21T13:46:46.947Z,60.78
2023-03-21T13:49:32.527Z,60.30
2023-03-21T13:52:04.490Z,60.76
2023-03-21T13:54:34.421Z,60.99
2023-03-21T13:57:05.684Z,61.02
2023-03-21T13:59:35.482Z,61.52
2023-03-21T14:02:20.526Z,61.51
2023-03-21T14:05:04.229Z,60.56
2023-03-21T14:07:36.882Z,61.15
2023-03-21T14:10:08.938Z,60.90
2023-03-21T14:12:42.582Z,61.07
2023-03-21T14:15:19.752Z,60.98
2023-03-21T14:17:56.605Z,61.03
2023-03-21T14:20:38.838Z,61.30
2023-03-21T14:23:07.783Z,61.62
2023-03-21T14:25:47.323Z,61.25
2023-03-21T14:28:21.560Z,60.63
2023-03-21T14:30:54.660Z,60.29
2023-03-21T14:33:26.109Z,60.80
2023-03-21T14:35:56.017Z,60.58
2023-03-21T14:38:29.321Z,60.40
2023-03-21T14:40:58.436Z,60.75
2023-03-21T14:43:30.868Z,60.16
2023-03-21T14:46:01.333Z,60.22
2023-03-21T14:48:33.416Z,60.05
2023-03-21T14:51:10.911Z,60.58
2023-03-21T14:53:41.373Z,60.38
2023-03-21T14:56:23.325Z,60.57
2023-03-21T14:58:50.772Z,60.30
2023-03-21T15:01:33.329Z,59.89
2023-03-21T15:04:04.318Z,60.59
2023-03-21T15:06:31.051Z,60.87
2023-03-21T15:09:00.160Z,60.67
2023-03-21T15:11:35.423Z,60.90
2023-03-21T15:14:10.347Z,60.63
2023-03-21T15:16:38.093Z,60.42
2023-03-21T15:19:05.651Z,60.80
2023-03-21T15:21:37.965Z,60.87
2023-03-21T15:24:22.523Z,61.09
2023-03-21T15:26:50.935Z,60.48
2023-03-21T15:29:18.517Z,60.51
2023-03-21T15:31:50.304Z,60.42
2023-03-21T15:34:30.106Z,60.52
2023-03-21T15:37:09.231Z,61.28
2023-03-21T15:39:36.516Z,60.98
2023-03-21T15:42:21.316Z,61.51
2023-03-21T15:44:51.420Z,61.51
2023-03-21T15:47:39.324Z,61.95
2023-03-21T15:50:37.895Z,61.71
2023-03-21T15:53:14.575Z,62.04
2023-03-21T15:55:48.459Z,62.50
2023-03-21T15:58:22.413Z,61.87
2023-03-21T16:00:55.807Z,62.35
2023-03-21T16:03:35.161Z,62.54
2023-03-21T16:06:22.144Z,62.20
2023-03-21T16:09:08.876Z,62.39
2023-03-21T16:11:41.516Z,63.12
2023-03-21T16:14:08.967Z,63.23
2023-03-21T16:16:36.425Z,62.56
2023-03-21T16:19:03.393Z,62.87
2023-03-21T16:21:32.073Z,63.22
2023-03-21T16:23:58.859Z,63.01
2023-03-21T16:26:30.822Z,62.83
2023-03-21T16:28:58.045Z,62.65
2023-03-21T16:31:27.805Z,62.53
2023-03-21T16:33:57.553Z,62.99
2023-03-21T16:36:29.315Z,63.33
2023-03-21T16:38:56.967Z,63.65
2023-03-21T16:41:27.647Z,63.84
2023-03-21T16:43:57.167Z,63.43
2023-03-21T16:46:27.741Z,63.59
2023-03-21T16:48:57.038Z,63.53
2023-03-21T16:51:44.077Z,63.80
2023-03-21T16:54:13.331Z,63.87
2023-03-21T16:56:44.219Z,63.68
2023-03-21T16:59:14.048Z,64.19
2023-03-21T17:01:41.944Z,64.59
2023-03-21T17:04:09.215Z,64.57
2023-03-21T17:06:44.825Z,64.50
2023-03-21T17:09:14.456Z,64.59
2023-03-21T17:11:41.717Z,64.34
2023-03-21T17:14:13.869Z,64.94
2023-03-21T17:16:43.082Z,64.38
2023-03-21T17:19:19.821Z,64.80
2023-03-21T17:21:51.126Z,63.98
2023-03-21T17:24:17.975Z,64.28
2023-03-21T17:26:44.761Z,64.27
2023-03-21T17:29:14.323Z,64.03
2023-03-21T17:31:42.539Z,64.34
2023-03-21T17:34:09.805Z,64.39
2023-03-21T17:36:39.930Z,64.68
2023-03-21T17:39:09.442Z,64.95
2023-03-21T17:41:36.370Z,65.27
2023-03-21T17:44:03.469Z,65.18
2023-03-21T17:46:37.026Z,65.43
2023-03-21T17:49:04.944Z,65.82
2023-03-21T17:51:33.179Z,65.84
2023-03-21T17:54:01.015Z,66.28
2023-03-21T17:56:34.634Z,66.34
2023-03-21T17:59:07.527Z,66.42
2023-03-21T18:01:35.597Z,66.87
2023-03-21T18:04:04.966Z,66.84
2023-03-21T18:06:34.212Z,66.83
2023-03-21T18:09:10.992Z,67.23
2023-03-21T18:11:39.419Z,67.32
2023-03-21T18:14:15.735Z,67.28
2023-03-21T18:16:43.855Z,67.90
2023-03-21T18:19:13.051Z,68.05
2023-03-21T18:21:45.734Z,68.07
2023-03-21T18:24:16.014Z,68.05
2023-03-21T18:26:43.917Z,68.28
2023-03-21T18:30:15.798Z,68.70
2023-03-21T18:32:07.909Z,68.71
2023-03-21T18:34:38.742Z,68.54
2023-03-21T18:37:10.029Z,69.14
2023-03-21T18:39:38.622Z,69.49
2023-03-21T18:42:06.520Z,69.27
2023-03-21T18:44:37.525Z,69.48
2023-03-21T18:47:04.989Z,69.15
2023-03-21T18:52:18.925Z,69.57
2023-03-21T18:54:46.050Z,70.00
2023-03-21T19:00:09.372Z,70.27
2023-03-21T19:02:41.929Z,70.19
2023-03-21T19:05:12.648Z,70.54
2023-03-21T19:07:39.639Z,70.12
2023-03-21T19:10:17.617Z,70.39
2023-03-21T19:12:45.978Z,70.61
2023-03-21T19:15:12.777Z,70.31
2023-03-21T19:20:31.548Z,71.30
2023-03-21T19:22:58.386Z,71.18
2023-03-21T19:25:26.098Z,71.40
2023-03-21T19:27:52.818Z,71.45
2023-03-21T19:30:21.958Z,71.47
2023-03-21T19:32:48.777Z,71.43
2023-03-21T19:35:18.760Z,71.20
2023-03-21T19:37:45.756Z,70.70
2023-03-21T19:40:12.817Z,71.08
2023-03-21T19:42:40.452Z,71.42
2023-03-21T19:45:07.857Z,70.60
2023-03-21T19:47:36.974Z,70.89
2023-03-21T19:50:43.839Z,70.28
2023-03-21T19:52:54.120Z,70.33
2023-03-21T19:55:20.930Z,70.65
2023-03-21T19:57:49.300Z,70.58
2023-03-21T20:00:17.389Z,70.31
2023-03-21T20:02:47.280Z,70.33
2023-03-21T20:05:16.302Z,70.76
2023-03-21T20:07:43.007Z,69.95
2023-03-21T20:10:12.539Z,69.77
2023-03-21T20:12:39.363Z,70.40
2023-03-21T20:15:17.346Z,69.98
2023-03-21T20:17:49.558Z,69.62
2023-03-21T20:20:18.445Z,69.90
2023-03-21T20:23:07.327Z,69.40
2023-03-21T20:25:35.179Z,68.94
2023-03-21T20:28:25.054Z,69.17
2023-03-21T20:30:51.620Z,68.67
2023-03-21T20:33:18.812Z,68.61
2023-03-21T20:36:35.624Z,69.12
2023-03-21T20:38:35.663Z,68.83
2023-03-21T20:41:04.482Z,68.91
2023-03-21T20:46:21.485Z,68.52
2023-03-21T20:48:49.805Z,68.47
2023-03-21T20:52:27.476Z,68.31
2023-03-21T20:54:07.576Z,68.67
2023-03-21T20:56:40.042Z,68.45
2023-03-21T20:59:18.741Z,68.44
2023-03-21T21:01:54.534Z,68.84
2023-03-21T21:04:22.968Z,68.60
2023-03-21T21:06:52.530Z,68.09
2023-03-21T21:09:19.279Z,68.54
2023-03-21T21:14:33.520Z,68.47
2023-03-21T21:17:15.503Z,69.19
2023-03-21T21:19:50.104Z,69.30
2023-03-21T21:22:17.558Z,68.80
2023-03-21T21:24:44.872Z,69.07
2023-03-21T21:27:12.054Z,69.38
2023-03-21T21:29:38.884Z,69.53
2023-03-21T21:32:05.593Z,69.87
2023-03-21T21:34:32.604Z,70.12
2023-03-21T21:36:59.209Z,69.83
2023-03-21T21:39:27.607Z,70.08
2023-03-21T21:41:54.345Z,69.90
2023-03-21T21:44:21.359Z,70.03
2023-03-21T21:46:48.043Z,70.11
2023-03-21T21:49:14.756Z,70.19
2023-03-21T21:51:47.776Z,70.38
2023-03-21T21:54:18.400Z,70.32
2023-03-21T21:56:48.568Z,70.24
2023-03-21T21:59:17.823Z,70.25
2023-03-21T22:01:44.523Z,70.09
2023-03-21T22:04:12.235Z,70.10
2023-03-21T22:06:38.872Z,70.42
2023-03-21T22:09:07.035Z,70.09
2023-03-21T22:11:36.419Z,69.97
2023-03-21T22:14:03.716Z,70.28
2023-03-21T22:16:30.766Z,70.38
2023-03-21T22:18:57.423Z,69.96
2023-03-21T22:21:26.518Z,70.17
2023-03-21T22:23:53.255Z,69.99
2023-03-21T22:26:19.992Z,70.09
2023-03-21T22:28:46.700Z,69.98
2023-03-21T22:31:16.099Z,69.46
2023-03-21T22:33:45.946Z,69.84
2023-03-21T22:36:13.050Z,69.43
2023-03-21T22:38:41.877Z,69.32
2023-03-21T22:41:08.620Z,69.04
2023-03-21T22:43:35.566Z,69.25
2023-03-21T22:46:06.750Z,69.17
2023-03-21T22:48:35.738Z,68.84
2023-03-21T22:51:02.437Z,68.54
2023-03-21T22:53:33.914Z,68.70
2023-03-21T22:56:00.806Z,68.43
2023-03-21T22:58:27.619Z,68.38
2023-03-21T23:00:54.371Z,67.96
2023-03-21T23:03:21.150Z,68.30
2023-03-21T23:05:55.146Z,68.23
2023-03-21T23:08:23.775Z,67.81
2023-03-21T23:10:50.764Z,67.88
2023-03-21T23:13:17.425Z,67.97
2023-03-21T23:15:44.240Z,67.75
2023-03-21T23:18:15.789Z,67.72
2023-03-21T23:20:42.868Z,68.14
2023-03-21T23:23:09.693Z,68.40
2023-03-21T23:25:39.540Z,67.87
2023-03-21T23:28:09.668Z,67.55
2023-03-21T23:30:37.803Z,68.40
2023-03-21T23:33:04.805Z,68.22
2023-03-21T23:35:34.806Z,68.25
2023-03-21T23:38:04.741Z,68.36
2023-03-21T23:40:33.746Z,68.36
2023-03-21T23:43:02.965Z,67.95
2023-03-21T23:45:32.166Z,67.99
2023-03-21T23:48:01.534Z,68.41
2023-03-21T23:50:28.198Z,68.50
2023-03-21T23:52:54.857Z,68.29
2023-03-21T23:55:23.982Z,68.75
2023-03-21T23:57:59.050Z,68.48
